Time;durP1;ratioP1;P1;durP2;ratioP2;P2;SDS_P1;SDS_P2;PMS_P1;PMS_P2;Temp;Humidity;BMP_temperature;BMP_pressure;BME280_temperature;BME280_humidity;BME280_pressure;Samples;Min_cycle;Max_cycle;Signal;HPM_P1;HPM_P2
2023/06/02 00:00:40;;;;;;;7.10;4.85;;;;;;;;;;5054227;28;20029;-68
2023/06/02 00:03:08;;;;;;;8.43;4.85;;;;;;;;;;5054034;28;20017;-69
2023/06/02 00:05:34;;;;;;;7.70;4.40;;;;;;;;;;5053955;28;20485;-69
2023/06/02 00:08:02;;;;;;;8.60;5.18;;;;;;;;;;5054024;28;20531;-68
2023/06/02 00:10:29;;;;;;;6.15;5.03;;;;;;;;;;5053649;28;20021;-68
2023/06/02 00:12:55;;;;;;;7.07;5.15;;;;;;;;;;5053785;28;20039;-68
2023/06/02 00:15:21;;;;;;;6.72;4.50;;;;;;;;;;5054017;28;20031;-68
2023/06/02 00:17:48;;;;;;;5.72;4.93;;;;;;;;;;5053644;28;20027;-68
2023/06/02 00:20:17;;;;;;;8.50;4.97;;;;;;;;;;5053689;28;20025;-68
2023/06/02 00:22:46;;;;;;;7.85;5.15;;;;;;;;;;5053411;28;20018;-68
2023/06/02 00:25:13;;;;;;;7.35;5.10;;;;;;;;;;5053398;28;20035;-68
2023/06/02 00:27:39;;;;;;;5.95;4.80;;;;;;;;;;5053553;28;20423;-68
2023/06/02 00:30:06;;;;;;;6.90;4.80;;;;;;;;;;5053500;28;20032;-68
2023/06/02 00:32:32;;;;;;;8.40;5.25;;;;;;;;;;5053699;28;20017;-68
2023/06/02 00:34:59;;;;;;;8.15;5.60;;;;;;;;;;5053303;28;20082;-69
2023/06/02 00:37:25;;;;;;;6.28;4.60;;;;;;;;;;5053625;28;20013;-68
2023/06/02 00:39:51;;;;;;;5.90;4.65;;;;;;;;;;5052969;28;20024;-68
2023/06/02 00:42:18;;;;;;;8.00;4.90;;;;;;;;;;5053013;28;20024;-68
2023/06/02 00:44:45;;;;;;;6.65;4.68;;;;;;;;;;5052262;28;20029;-68
2023/06/02 00:47:11;;;;;;;7.85;5.07;;;;;;;;;;5053109;28;20050;-68
2023/06/02 00:49:37;;;;;;;6.38;5.20;;;;;;;;;;5053116;28;20393;-68
2023/06/02 00:52:04;;;;;;;6.05;5.05;;;;;;;;;;5053047;28;20029;-69
2023/06/02 00:54:30;;;;;;;8.15;4.70;;;;;;;;;;5053113;28;20051;-68
2023/06/02 00:56:57;;;;;;;5.50;4.43;;;;;;;;;;5052815;28;20025;-68
2023/06/02 00:59:24;;;;;;;8.75;4.65;;;;;;;;;;5052899;28;20039;-68
2023/06/02 01:01:50;;;;;;;10.50;5.10;;;;;;;;;;5052957;28;20025;-68
2023/06/02 01:04:18;;;;;;;7.18;5.20;;;;;;;;;;5052779;28;20021;-68
2023/06/02 01:06:48;;;;;;;6.40;4.97;;;;;;;;;;5053032;28;20021;-68
2023/06/02 01:09:18;;;;;;;7.70;4.72;;;;;;;;;;5052448;28;20036;-68
2023/06/02 01:11:47;;;;;;;8.10;5.30;;;;;;;;;;5052706;28;20021;-67
2023/06/02 01:14:13;;;;;;;7.63;5.05;;;;;;;;;;5052484;28;20033;-68
2023/06/02 01:16:40;;;;;;;8.43;4.80;;;;;;;;;;5052726;28;20029;-68
2023/06/02 01:19:13;;;;;;;7.18;4.72;;;;;;;;;;5052562;28;20031;-68
2023/06/02 01:21:39;;;;;;;5.80;5.03;;;;;;;;;;5052403;28;20021;-68
2023/06/02 01:24:06;;;;;;;6.40;5.47;;;;;;;;;;5052136;28;20049;-69
2023/06/02 01:26:34;;;;;;;7.25;5.30;;;;;;;;;;5052761;28;20029;-68
2023/06/02 01:29:04;;;;;;;7.20;5.10;;;;;;;;;;5052407;28;20035;-68
2023/06/02 01:31:33;;;;;;;10.70;5.32;;;;;;;;;;5052342;28;20559;-69
2023/06/02 01:34:03;;;;;;;6.82;4.90;;;;;;;;;;5052356;28;20037;-68
2023/06/02 01:36:30;;;;;;;5.77;4.93;;;;;;;;;;5051416;28;20043;-68
2023/06/02 01:38:57;;;;;;;6.22;5.30;;;;;;;;;;5052093;28;20485;-69
2023/06/02 01:41:24;;;;;;;7.85;5.60;;;;;;;;;;5052325;28;20085;-68
2023/06/02 01:43:50;;;;;;;8.82;5.00;;;;;;;;;;5052302;28;20478;-68
2023/06/02 01:46:17;;;;;;;8.50;5.63;;;;;;;;;;5052249;28;20031;-68
2023/06/02 01:48:43;;;;;;;7.90;5.25;;;;;;;;;;5052160;28;20055;-68
2023/06/02 01:51:09;;;;;;;7.55;5.38;;;;;;;;;;5051912;28;20492;-68
2023/06/02 01:53:36;;;;;;;6.53;5.40;;;;;;;;;;5051064;28;20024;-68
2023/06/02 01:56:02;;;;;;;7.03;5.40;;;;;;;;;;5052172;28;20028;-68
2023/06/02 01:58:28;;;;;;;7.03;5.93;;;;;;;;;;5051948;28;20385;-68
2023/06/02 02:00:56;;;;;;;6.68;5.68;;;;;;;;;;5051971;28;20031;-68
2023/06/02 02:03:22;;;;;;;7.75;5.50;;;;;;;;;;5051928;28;20027;-68
2023/06/02 02:05:49;;;;;;;7.15;5.75;;;;;;;;;;5051949;28;20025;-69
2023/06/02 02:08:16;;;;;;;6.45;5.22;;;;;;;;;;5051537;28;20044;-68
2023/06/02 02:10:42;;;;;;;8.35;5.63;;;;;;;;;;5051975;28;20070;-68
2023/06/02 02:13:08;;;;;;;7.00;4.85;;;;;;;;;;5051909;28;20025;-68
2023/06/02 02:15:35;;;;;;;7.57;5.30;;;;;;;;;;5051972;28;20078;-68
2023/06/02 02:18:03;;;;;;;10.45;5.90;;;;;;;;;;5052063;28;20029;-68
2023/06/02 02:20:29;;;;;;;6.22;5.40;;;;;;;;;;5051751;28;20067;-68
2023/06/02 02:22:56;;;;;;;7.57;5.32;;;;;;;;;;5051850;28;20051;-68
2023/06/02 02:25:22;;;;;;;7.20;5.15;;;;;;;;;;5051827;28;20035;-68
2023/06/02 02:27:49;;;;;;;8.77;5.60;;;;;;;;;;5051867;28;20025;-68
2023/06/02 02:30:15;;;;;;;6.60;5.13;;;;;;;;;;5051515;28;20035;-68
2023/06/02 02:32:46;;;;;;;7.18;4.97;;;;;;;;;;5051812;28;20017;-68
2023/06/02 02:35:13;;;;;;;9.48;5.70;;;;;;;;;;5051753;28;20025;-68
2023/06/02 02:37:39;;;;;;;8.75;5.82;;;;;;;;;;5051801;28;20036;-68
2023/06/02 02:40:06;;;;;;;6.38;5.53;;;;;;;;;;5051669;28;20515;-68
2023/06/02 02:42:36;;;;;;;8.98;5.50;;;;;;;;;;5051914;28;20021;-68
2023/06/02 02:45:02;;;;;;;9.88;5.93;;;;;;;;;;5051560;28;20020;-68
2023/06/02 02:47:29;;;;;;;8.02;5.40;;;;;;;;;;5051814;28;20228;-68
2023/06/02 02:49:55;;;;;;;6.80;5.80;;;;;;;;;;5051227;28;20032;-68
2023/06/02 02:52:21;;;;;;;13.57;6.35;;;;;;;;;;5051824;28;20017;-68
2023/06/02 02:54:48;;;;;;;6.13;5.10;;;;;;;;;;5051791;28;20032;-68
2023/06/02 02:57:14;;;;;;;13.07;6.05;;;;;;;;;;5051255;28;20047;-68
2023/06/02 02:59:41;;;;;;;6.60;5.32;;;;;;;;;;5051531;28;20029;-68
2023/06/02 03:02:08;;;;;;;10.20;5.72;;;;;;;;;;5051495;28;20032;-68
2023/06/02 03:04:34;;;;;;;9.82;5.53;;;;;;;;;;5053564;28;20020;-68
2023/06/02 03:07:01;;;;;;;10.02;6.05;;;;;;;;;;5053978;28;20029;-68
2023/06/02 03:09:28;;;;;;;12.55;5.65;;;;;;;;;;5054835;28;20489;-68
2023/06/02 03:11:54;;;;;;;8.75;6.00;;;;;;;;;;5055284;28;20021;-68
2023/06/02 03:14:22;;;;;;;7.63;5.65;;;;;;;;;;5055184;28;20025;-68
2023/06/02 03:16:49;;;;;;;10.60;5.70;;;;;;;;;;5054869;28;20033;-68
2023/06/02 03:19:15;;;;;;;8.40;5.57;;;;;;;;;;5054828;28;20028;-68
2023/06/02 03:21:42;;;;;;;6.28;5.45;;;;;;;;;;5054612;28;20025;-68
2023/06/02 03:24:12;;;;;;;8.07;5.88;;;;;;;;;;5054604;28;20056;-68
2023/06/02 03:26:45;;;;;;;6.63;5.33;;;;;;;;;;5053562;28;20094;-68
2023/06/02 03:29:12;;;;;;;7.18;5.47;;;;;;;;;;5054603;28;20037;-68
2023/06/02 03:31:38;;;;;;;10.15;5.88;;;;;;;;;;5054526;28;20448;-68
2023/06/02 03:34:05;;;;;;;8.35;5.72;;;;;;;;;;5053174;28;20036;-68
2023/06/02 03:36:35;;;;;;;9.82;5.55;;;;;;;;;;5054588;28;20035;-68
2023/06/02 03:39:04;;;;;;;7.28;5.82;;;;;;;;;;5054621;28;20025;-68
2023/06/02 03:41:30;;;;;;;7.18;5.22;;;;;;;;;;5054380;28;20523;-68
2023/06/02 03:43:57;;;;;;;6.20;5.30;;;;;;;;;;5054707;28;20029;-68
2023/06/02 03:46:23;;;;;;;8.55;5.50;;;;;;;;;;5054382;28;20046;-68
2023/06/02 03:48:49;;;;;;;6.60;5.63;;;;;;;;;;5054319;28;20033;-68
2023/06/02 03:51:16;;;;;;;11.50;5.93;;;;;;;;;;5054386;28;20095;-68
2023/06/02 03:53:42;;;;;;;7.65;5.55;;;;;;;;;;5054430;28;20021;-68
2023/06/02 03:56:08;;;;;;;8.80;6.03;;;;;;;;;;5054198;28;20021;-68
2023/06/02 03:58:35;;;;;;;7.63;6.07;;;;;;;;;;5053996;28;20031;-68
2023/06/02 04:01:02;;;;;;;10.32;5.43;;;;;;;;;;5054173;28;20025;-68
2023/06/02 04:03:29;;;;;;;10.23;5.78;;;;;;;;;;5054018;28;20013;-68
2023/06/02 04:05:55;;;;;;;9.38;5.40;;;;;;;;;;5053970;28;20033;-68
2023/06/02 04:08:21;;;;;;;7.30;5.18;;;;;;;;;;5053886;28;20485;-68
2023/06/02 04:10:48;;;;;;;5.85;5.05;;;;;;;;;;5053730;28;20037;-68
2023/06/02 04:13:14;;;;;;;11.63;5.43;;;;;;;;;;5054119;28;20024;-68
2023/06/02 04:15:40;;;;;;;10.25;5.60;;;;;;;;;;5052855;28;20017;-69
2023/06/02 04:18:07;;;;;;;6.97;5.30;;;;;;;;;;5053474;28;20024;-68
2023/06/02 04:20:33;;;;;;;5.95;5.30;;;;;;;;;;5053434;28;20096;-70
2023/06/02 04:22:59;;;;;;;8.88;5.72;;;;;;;;;;5053498;28;20459;-68
2023/06/02 04:25:26;;;;;;;6.82;5.05;;;;;;;;;;5053683;28;20489;-68
2023/06/02 04:27:52;;;;;;;8.35;4.82;;;;;;;;;;5053848;28;20032;-68
2023/06/02 04:30:18;;;;;;;5.70;4.82;;;;;;;;;;5053409;28;20401;-68
2023/06/02 04:32:45;;;;;;;8.77;4.40;;;;;;;;;;5053284;28;20025;-68
2023/06/02 04:35:11;;;;;;;8.13;4.65;;;;;;;;;;5053763;28;20020;-68
2023/06/02 04:37:38;;;;;;;5.30;4.80;;;;;;;;;;5053254;28;20025;-68
2023/06/02 04:40:04;;;;;;;8.80;5.45;;;;;;;;;;5053350;28;20021;-68
2023/06/02 04:42:32;;;;;;;5.80;5.20;;;;;;;;;;5053579;28;20037;-68
2023/06/02 04:45:00;;;;;;;5.60;4.95;;;;;;;;;;5053287;28;20439;-68
2023/06/02 04:47:27;;;;;;;8.07;5.88;;;;;;;;;;5053366;28;20025;-68
2023/06/02 04:49:54;;;;;;;8.27;5.13;;;;;;;;;;5053225;28;20047;-68
2023/06/02 04:52:21;;;;;;;5.05;4.55;;;;;;;;;;5053248;28;20017;-68
2023/06/02 04:54:48;;;;;;;6.68;4.78;;;;;;;;;;5053010;28;20025;-68
2023/06/02 04:57:15;;;;;;;8.07;5.43;;;;;;;;;;5052942;28;20017;-68
2023/06/02 04:59:41;;;;;;;8.68;5.47;;;;;;;;;;5052769;28;20039;-70
2023/06/02 05:02:07;;;;;;;6.38;5.18;;;;;;;;;;5052787;28;20370;-68
2023/06/02 05:04:35;;;;;;;11.18;5.40;;;;;;;;;;5052939;28;20028;-68
2023/06/02 05:07:03;;;;;;;6.97;5.22;;;;;;;;;;5052908;28;20029;-68
2023/06/02 05:09:29;;;;;;;6.20;5.18;;;;;;;;;;5052739;28;20508;-68
2023/06/02 05:11:56;;;;;;;6.20;4.88;;;;;;;;;;5052953;28;20033;-68
2023/06/02 05:14:22;;;;;;;8.60;5.20;;;;;;;;;;5052505;28;20021;-69
2023/06/02 05:16:48;;;;;;;8.48;5.28;;;;;;;;;;5052760;28;20033;-68
2023/06/02 05:19:15;;;;;;;7.00;4.82;;;;;;;;;;5052491;28;20029;-68
2023/06/02 05:21:41;;;;;;;9.60;5.50;;;;;;;;;;5052862;28;20028;-68
2023/06/02 05:24:07;;;;;;;9.30;5.35;;;;;;;;;;5052409;28;20048;-69
2023/06/02 05:26:34;;;;;;;6.82;5.13;;;;;;;;;;5052346;28;20498;-68
2023/06/02 05:29:00;;;;;;;7.38;5.30;;;;;;;;;;5052266;28;20405;-68
2023/06/02 05:31:26;;;;;;;6.28;4.82;;;;;;;;;;5052443;28;20074;-68
2023/06/02 05:33:53;;;;;;;5.85;4.90;;;;;;;;;;5052508;28;20039;-68
2023/06/02 05:36:19;;;;;;;6.90;5.18;;;;;;;;;;5052235;28;20624;-68
2023/06/02 05:38:45;;;;;;;8.68;4.90;;;;;;;;;;5052143;28;20035;-68
2023/06/02 05:41:12;;;;;;;8.48;5.43;;;;;;;;;;5052430;28;20388;-68
2023/06/02 05:43:38;;;;;;;7.45;4.93;;;;;;;;;;5052049;28;20482;-69
2023/06/02 05:46:04;;;;;;;8.07;5.38;;;;;;;;;;5050700;28;20021;-69
2023/06/02 05:48:31;;;;;;;7.43;5.18;;;;;;;;;;5052346;28;20041;-69
2023/06/02 05:50:57;;;;;;;6.10;4.90;;;;;;;;;;5050766;28;20025;-69
2023/06/02 05:53:23;;;;;;;7.93;5.38;;;;;;;;;;5050741;28;20511;-69
2023/06/02 05:55:50;;;;;;;7.32;5.38;;;;;;;;;;5051851;28;20037;-68
2023/06/02 05:58:16;;;;;;;8.35;5.40;;;;;;;;;;5051172;28;20440;-69
2023/06/02 06:00:42;;;;;;;8.70;4.90;;;;;;;;;;5052040;28;20033;-69
2023/06/02 06:03:09;;;;;;;6.30;5.35;;;;;;;;;;5051812;28;20021;-68
2023/06/02 06:05:35;;;;;;;8.20;4.75;;;;;;;;;;5051557;28;20023;-69
2023/06/02 06:08:02;;;;;;;7.03;4.80;;;;;;;;;;5051509;28;20047;-68
2023/06/02 06:10:28;;;;;;;8.10;4.93;;;;;;;;;;5051515;28;20033;-69
2023/06/02 06:12:55;;;;;;;8.10;4.97;;;;;;;;;;5051322;28;20017;-69
2023/06/02 06:15:21;;;;;;;13.93;5.65;;;;;;;;;;5051610;28;20396;-68
2023/06/02 06:17:51;;;;;;;8.35;5.15;;;;;;;;;;5047994;28;20057;-69
2023/06/02 06:20:18;;;;;;;6.53;5.10;;;;;;;;;;5050836;28;20025;-71
2023/06/02 06:22:44;;;;;;;7.28;5.30;;;;;;;;;;5051519;28;20051;-71
2023/06/02 06:25:10;;;;;;;8.05;5.10;;;;;;;;;;5050777;28;20099;-70
2023/06/02 06:27:37;;;;;;;9.52;5.05;;;;;;;;;;5046495;28;20039;-71
2023/06/02 06:30:04;;;;;;;6.57;4.40;;;;;;;;;;5045679;28;20044;-70
2023/06/02 06:32:31;;;;;;;5.72;4.60;;;;;;;;;;5044987;28;20500;-70
2023/06/02 06:34:57;;;;;;;5.78;5.03;;;;;;;;;;5041610;28;20023;-71
2023/06/02 06:37:24;;;;;;;11.98;5.47;;;;;;;;;;5049471;28;20489;-69
2023/06/02 06:39:50;;;;;;;11.13;5.47;;;;;;;;;;5050117;28;20033;-70
2023/06/02 06:42:17;;;;;;;7.85;5.10;;;;;;;;;;5054680;28;20024;-70
2023/06/02 06:44:43;;;;;;;9.68;5.43;;;;;;;;;;5055862;28;20427;-71
2023/06/02 06:47:09;;;;;;;7.45;4.90;;;;;;;;;;5054188;28;20032;-70
2023/06/02 06:49:35;;;;;;;6.32;5.05;;;;;;;;;;5054410;28;20554;-69
2023/06/02 06:52:02;;;;;;;6.75;4.90;;;;;;;;;;5055276;28;20021;-72
2023/06/02 06:54:28;;;;;;;6.32;4.15;;;;;;;;;;5055102;28;20035;-69
2023/06/02 06:56:54;;;;;;;6.43;4.50;;;;;;;;;;5054718;28;20025;-69
2023/06/02 06:59:21;;;;;;;5.35;4.13;;;;;;;;;;5054543;28;20017;-71
2023/06/02 07:01:47;;;;;;;4.93;4.25;;;;;;;;;;5054660;28;20037;-71
2023/06/02 07:04:13;;;;;;;5.85;4.63;;;;;;;;;;5055523;28;20031;-71
2023/06/02 07:06:40;;;;;;;10.57;4.55;;;;;;;;;;5053824;28;20039;-70
2023/06/02 07:09:08;;;;;;;6.88;4.60;;;;;;;;;;5054656;28;20033;-71
2023/06/02 07:11:34;;;;;;;4.88;4.38;;;;;;;;;;5054552;28;20500;-71
2023/06/02 07:14:01;;;;;;;6.25;4.50;;;;;;;;;;5055054;28;20033;-70
2023/06/02 07:16:27;;;;;;;5.45;4.30;;;;;;;;;;5052090;28;20017;-69
2023/06/02 07:18:53;;;;;;;7.03;4.65;;;;;;;;;;5057030;28;20033;-69
2023/06/02 07:21:20;;;;;;;7.35;4.20;;;;;;;;;;5053490;28;20037;-69
2023/06/02 07:23:46;;;;;;;7.85;4.60;;;;;;;;;;5053569;28;20075;-69
2023/06/02 07:26:12;;;;;;;5.95;4.00;;;;;;;;;;5054452;28;20025;-69
2023/06/02 07:28:39;;;;;;;4.82;3.67;;;;;;;;;;5053656;28;20308;-69
2023/06/02 07:31:05;;;;;;;5.13;3.92;;;;;;;;;;5053473;28;20059;-69
2023/06/02 07:33:32;;;;;;;6.93;3.95;;;;;;;;;;5053213;28;20058;-69
2023/06/02 07:35:58;;;;;;;4.53;4.13;;;;;;;;;;5053604;28;20028;-69
2023/06/02 07:38:24;;;;;;;5.18;4.13;;;;;;;;;;5053357;28;20401;-69
2023/06/02 07:40:51;;;;;;;5.68;3.92;;;;;;;;;;5053303;28;20031;-69
2023/06/02 07:43:17;;;;;;;6.28;4.47;;;;;;;;;;5053406;28;20021;-70
2023/06/02 07:45:43;;;;;;;8.27;4.30;;;;;;;;;;5053184;28;20477;-69
2023/06/02 07:48:10;;;;;;;9.57;4.43;;;;;;;;;;5053282;28;20044;-69
2023/06/02 07:50:36;;;;;;;6.60;4.30;;;;;;;;;;5051901;28;20529;-69
2023/06/02 07:53:03;;;;;;;4.55;4.15;;;;;;;;;;5053117;28;20025;-69
2023/06/02 07:55:29;;;;;;;5.50;3.90;;;;;;;;;;5053062;28;20037;-69
2023/06/02 07:57:55;;;;;;;4.85;4.35;;;;;;;;;;5053065;28;20043;-70
2023/06/02 08:00:22;;;;;;;4.78;4.25;;;;;;;;;;5051111;28;20028;-69
2023/06/02 08:02:48;;;;;;;5.60;4.07;;;;;;;;;;5052986;28;20017;-69
2023/06/02 08:05:15;;;;;;;3.90;3.60;;;;;;;;;;5053045;28;20028;-69
2023/06/02 08:07:42;;;;;;;5.72;3.97;;;;;;;;;;5052367;28;20035;-70
2023/06/02 08:10:09;;;;;;;5.07;4.10;;;;;;;;;;5051253;28;20041;-69
2023/06/02 08:12:35;;;;;;;8.43;4.30;;;;;;;;;;5052744;28;20542;-69
2023/06/02 08:15:02;;;;;;;5.70;3.90;;;;;;;;;;5052508;28;20021;-69
2023/06/02 08:17:31;;;;;;;5.95;4.20;;;;;;;;;;5052716;28;20020;-69
2023/06/02 08:19:58;;;;;;;5.60;4.05;;;;;;;;;;5054505;28;20558;-69
2023/06/02 08:22:28;;;;;;;4.18;3.70;;;;;;;;;;5060104;28;20029;-69
2023/06/02 08:24:55;;;;;;;5.45;4.38;;;;;;;;;;5052234;28;20435;-69
2023/06/02 08:27:22;;;;;;;5.13;3.85;;;;;;;;;;5051097;28;20035;-70
2023/06/02 08:29:51;;;;;;;6.18;4.30;;;;;;;;;;5052152;28;20024;-70
2023/06/02 08:32:18;;;;;;;6.63;4.22;;;;;;;;;;5053375;28;20494;-69
2023/06/02 08:34:50;;;;;;;4.47;4.00;;;;;;;;;;5052379;28;20043;-69
2023/06/02 08:37:20;;;;;;;5.68;4.38;;;;;;;;;;5052152;28;20021;-69
2023/06/02 08:39:47;;;;;;;6.65;4.93;;;;;;;;;;5051931;28;20031;-69
2023/06/02 08:42:14;;;;;;;5.45;4.25;;;;;;;;;;5052435;28;20029;-70
2023/06/02 08:44:42;;;;;;;7.53;4.03;;;;;;;;;;5054529;28;20019;-70
2023/06/02 08:47:12;;;;;;;5.00;3.92;;;;;;;;;;5050788;28;20078;-68
2023/06/02 08:49:48;;;;;;;7.80;4.32;;;;;;;;;;5051582;28;20489;-68
2023/06/02 08:52:27;;;;;;;4.95;3.90;;;;;;;;;;5048649;28;20028;-69
2023/06/02 08:54:56;;;;;;;5.13;4.07;;;;;;;;;;5051870;28;20033;-69
2023/06/02 08:57:23;;;;;;;6.45;4.47;;;;;;;;;;5051772;28;20013;-69
2023/06/02 08:59:50;;;;;;;6.80;4.13;;;;;;;;;;5051751;28;20029;-69
2023/06/02 09:02:18;;;;;;;7.07;4.13;;;;;;;;;;5051694;28;20023;-69
2023/06/02 09:04:45;;;;;;;7.82;4.20;;;;;;;;;;5051953;28;20028;-70
2023/06/02 09:07:15;;;;;;;8.48;4.20;;;;;;;;;;5051513;28;20027;-70
2023/06/02 09:09:41;;;;;;;;;;;;;;;;;;5051796;28;20037;-69
2023/06/02 09:12:08;;;;;;;6.18;3.85;;;;;;;;;;5051572;28;19905;-69
2023/06/02 09:14:35;;;;;;;5.25;3.70;;;;;;;;;;5051462;28;20773;-70
2023/06/02 09:17:02;;;;;;;3.78;3.42;;;;;;;;;;5051539;28;20029;-69
2023/06/02 09:19:48;;;;;;;6.78;3.72;;;;;;;;;;5051220;28;20397;-69
2023/06/02 09:22:14;;;;;;;3.60;3.30;;;;;;;;;;5051057;28;20017;-68
2023/06/02 09:24:41;;;;;;;4.95;3.75;;;;;;;;;;5051373;28;20041;-68
2023/06/02 09:27:12;;;;;;;5.25;3.80;;;;;;;;;;5051314;28;20040;-71
2023/06/02 09:29:39;;;;;;;8.55;3.42;;;;;;;;;;5049571;28;20090;-71
2023/06/02 09:32:11;;;;;;;3.20;3.00;;;;;;;;;;5051657;28;20016;-68
2023/06/02 09:34:38;;;;;;;5.90;3.65;;;;;;;;;;5050325;28;20029;-67
2023/06/02 09:37:10;;;;;;;6.43;3.78;;;;;;;;;;5052871;28;20016;-69
2023/06/02 09:39:42;;;;;;;5.38;3.83;;;;;;;;;;5048818;28;20505;-67
2023/06/02 09:42:08;;;;;;;4.65;3.72;;;;;;;;;;5051357;28;20025;-70
2023/06/02 09:44:35;;;;;;;4.15;3.50;;;;;;;;;;5051164;28;20516;-70
2023/06/02 09:47:05;;;;;;;4.20;3.40;;;;;;;;;;5050903;28;20407;-70
2023/06/02 09:49:40;;;;;;;4.57;3.67;;;;;;;;;;5050917;28;20036;-70
2023/06/02 09:52:14;;;;;;;3.72;3.42;;;;;;;;;;5053748;28;20025;-68
2023/06/02 09:54:42;;;;;;;4.45;3.40;;;;;;;;;;5055242;28;20029;-68
2023/06/02 09:57:09;;;;;;;5.50;3.40;;;;;;;;;;5050501;28;20017;-69
2023/06/02 09:59:36;;;;;;;5.82;3.65;;;;;;;;;;5050934;28;20392;-70
2023/06/02 10:02:02;;;;;;;4.00;3.60;;;;;;;;;;5050249;28;20801;-70
2023/06/02 10:04:28;;;;;;;4.25;3.60;;;;;;;;;;5050824;28;20028;-70
2023/06/02 10:07:06;;;;;;;4.18;3.30;;;;;;;;;;5050445;28;20025;-70
2023/06/02 10:09:38;;;;;;;4.85;3.47;;;;;;;;;;5049482;28;20033;-70
2023/06/02 10:12:07;;;;;;;4.35;3.40;;;;;;;;;;5050751;28;20036;-70
2023/06/02 10:14:55;;;;;;;3.63;3.33;;;;;;;;;;5053506;28;20027;-70
2023/06/02 10:17:21;;;;;;;4.32;3.17;;;;;;;;;;5055047;28;20031;-69
2023/06/02 10:19:55;;;;;;;3.70;3.40;;;;;;;;;;5054880;28;20037;-70
2023/06/02 10:22:45;;;;;;;5.40;3.20;;;;;;;;;;5054762;28;20023;-70
2023/06/02 10:25:17;;;;;;;4.00;3.20;;;;;;;;;;5054740;28;20055;-71
2023/06/02 10:27:44;;;;;;;3.53;3.22;;;;;;;;;;5054604;28;20049;-70
2023/06/02 10:30:11;;;;;;;3.97;3.50;;;;;;;;;;5054696;28;20044;-70
2023/06/02 10:32:45;;;;;;;3.05;2.75;;;;;;;;;;5054833;28;20017;-70
2023/06/02 10:35:11;;;;;;;6.85;3.50;;;;;;;;;;5054572;28;20032;-70
2023/06/02 10:37:39;;;;;;;6.38;3.45;;;;;;;;;;5054609;28;20484;-70
2023/06/02 10:40:10;;;;;;;4.32;3.50;;;;;;;;;;5054354;28;20032;-70
2023/06/02 10:42:36;;;;;;;3.97;3.58;;;;;;;;;;5053641;28;20031;-71
2023/06/02 10:45:20;;;;;;;4.50;3.85;;;;;;;;;;5053904;28;20610;-70
2023/06/02 10:47:47;;;;;;;5.60;3.53;;;;;;;;;;5054378;28;20032;-69
2023/06/02 10:50:14;;;;;;;3.85;3.40;;;;;;;;;;5053736;28;20154;-70
2023/06/02 10:52:59;;;;;;;5.47;3.90;;;;;;;;;;5054149;28;20024;-70
2023/06/02 10:55:26;;;;;;;4.60;3.30;;;;;;;;;;5054234;28;20029;-69
2023/06/02 10:58:03;;;;;;;4.70;3.33;;;;;;;;;;5054155;28;20511;-69
2023/06/02 11:00:32;;;;;;;81.47;6.45;;;;;;;;;;5053731;28;20031;-70
2023/06/02 11:02:59;;;;;;;14.70;7.07;;;;;;;;;;5053693;28;20030;-70
2023/06/02 11:05:26;;;;;;;13.93;5.65;;;;;;;;;;5053594;28;20404;-70
2023/06/02 11:08:23;;;;;;;11.18;5.60;;;;;;;;;;5054139;28;20081;-69
2023/06/02 11:10:56;;;;;;;18.10;6.00;;;;;;;;;;5053540;28;20041;-70
2023/06/02 11:13:23;;;;;;;24.98;13.40;;;;;;;;;;5033772;28;20022;-70
2023/06/02 11:15:52;;;;;;;108.80;13.40;;;;;;;;;;5033771;28;20079;-70
2023/06/02 11:18:22;;;;;;;19.95;11.60;;;;;;;;;;5033708;28;20032;-70
2023/06/02 11:20:52;;;;;;;41.25;20.23;;;;;;;;;;5033464;28;20107;-69
2023/06/02 11:23:18;;;;;;;41.17;24.52;;;;;;;;;;5033688;28;20404;-70
2023/06/02 11:25:48;;;;;;;33.70;20.52;;;;;;;;;;5065423;28;20043;-70
2023/06/02 11:28:20;;;;;;;26.15;16.52;;;;;;;;;;5033785;28;20029;-69
2023/06/02 11:30:46;;;;;;;21.20;14.48;;;;;;;;;;5033414;28;20478;-69
2023/06/02 11:33:13;;;;;;;17.70;10.68;;;;;;;;;;5033444;28;20420;-70
2023/06/02 11:35:46;;;;;;;12.10;6.80;;;;;;;;;;5033657;28;20021;-69
2023/06/02 11:38:16;;;;;;;14.20;9.45;;;;;;;;;;5033503;28;20025;-70
2023/06/02 11:40:42;;;;;;;17.25;10.98;;;;;;;;;;5042724;28;20029;-70
2023/06/02 11:43:09;;;;;;;13.48;7.90;;;;;;;;;;5052764;28;20519;-69
2023/06/02 11:45:36;;;;;;;15.38;7.18;;;;;;;;;;5053213;28;20029;-69
2023/06/02 11:48:10;;;;;;;8.95;5.78;;;;;;;;;;5052339;28;20028;-69
2023/06/02 11:50:37;;;;;;;8.27;6.20;;;;;;;;;;5052954;28;20033;-69
2023/06/02 11:53:11;;;;;;;7.22;4.63;;;;;;;;;;5053059;28;20511;-69
2023/06/02 11:55:37;;;;;;;9.20;4.68;;;;;;;;;;5052994;28;20033;-69
2023/06/02 11:58:20;;;;;;;8.60;4.28;;;;;;;;;;5052642;28;20013;-69
2023/06/02 12:00:47;;;;;;;6.90;4.20;;;;;;;;;;5051435;28;20021;-70
2023/06/02 12:03:14;;;;;;;7.32;3.70;;;;;;;;;;5052982;28;20066;-69
2023/06/02 12:05:44;;;;;;;5.88;4.00;;;;;;;;;;5052714;28;20388;-70
2023/06/02 12:08:12;;;;;;;5.75;3.63;;;;;;;;;;5052369;28;20029;-70
2023/06/02 12:10:41;;;;;;;7.47;3.25;;;;;;;;;;5052048;28;20035;-69
2023/06/02 12:13:08;;;;;;;12.60;3.45;;;;;;;;;;5052672;28;20035;-70
2023/06/02 12:15:35;;;;;;;4.22;2.80;;;;;;;;;;5052592;28;20029;-69
2023/06/02 12:18:02;;;;;;;3.65;2.85;;;;;;;;;;5052516;28;20480;-69
2023/06/02 12:20:41;;;;;;;3.42;2.75;;;;;;;;;;5052015;28;20017;-71
2023/06/02 12:23:08;;;;;;;4.65;3.00;;;;;;;;;;5052540;28;20063;-70
2023/06/02 12:25:35;;;;;;;6.10;2.58;;;;;;;;;;5052881;28;20501;-69
2023/06/02 12:28:08;;;;;;;4.13;2.80;;;;;;;;;;5052865;28;20033;-70
2023/06/02 12:30:34;;;;;;;3.50;2.67;;;;;;;;;;5052745;28;20041;-69
2023/06/02 12:33:06;;;;;;;3.80;2.95;;;;;;;;;;5053082;28;20404;-69
2023/06/02 12:35:33;;;;;;;5.00;3.00;;;;;;;;;;5052766;28;20062;-69
2023/06/02 12:37:59;;;;;;;4.75;2.60;;;;;;;;;;5052248;28;20525;-69
2023/06/02 12:40:25;;;;;;;8.10;2.70;;;;;;;;;;5052997;28;20033;-69
2023/06/02 12:42:52;;;;;;;4.35;2.65;;;;;;;;;;5050334;28;20533;-68
2023/06/02 12:45:18;;;;;;;7.88;2.92;;;;;;;;;;5084170;28;20035;-69
2023/06/02 12:47:44;;;;;;;3.42;2.75;;;;;;;;;;5052713;28;20029;-68
2023/06/02 12:50:11;;;;;;;4.90;2.60;;;;;;;;;;5052315;28;20039;-69
2023/06/02 12:52:37;;;;;;;4.32;2.80;;;;;;;;;;5051600;28;20027;-68
2023/06/02 12:55:04;;;;;;;6.38;3.03;;;;;;;;;;5052637;28;20025;-68
2023/06/02 12:57:30;;;;;;;4.68;2.72;;;;;;;;;;5052510;28;20025;-70
2023/06/02 12:59:56;;;;;;;3.70;2.80;;;;;;;;;;5052712;28;20033;-69
2023/06/02 13:02:24;;;;;;;3.47;2.67;;;;;;;;;;5051589;28;20455;-70
2023/06/02 13:04:51;;;;;;;4.53;2.47;;;;;;;;;;5052486;28;20020;-70
2023/06/02 13:07:17;;;;;;;4.85;2.97;;;;;;;;;;5049955;28;20021;-70
2023/06/02 13:09:43;;;;;;;6.68;2.83;;;;;;;;;;5052046;28;20048;-69
2023/06/02 13:12:10;;;;;;;3.28;2.60;;;;;;;;;;5051567;28;20025;-70
2023/06/02 13:14:36;;;;;;;3.00;2.42;;;;;;;;;;5051122;28;20036;-69
2023/06/02 13:17:05;;;;;;;3.58;2.53;;;;;;;;;;5051755;28;20817;-69
2023/06/02 13:19:31;;;;;;;5.97;2.58;;;;;;;;;;5051310;28;20035;-69
2023/06/02 13:21:57;;;;;;;3.92;2.80;;;;;;;;;;5052203;28;20021;-69
2023/06/02 13:24:24;;;;;;;4.07;2.75;;;;;;;;;;5051205;28;20730;-69
2023/06/02 13:26:51;;;;;;;6.68;2.90;;;;;;;;;;5051944;28;20036;-70
2023/06/02 13:29:17;;;;;;;5.07;2.72;;;;;;;;;;5051637;28;20029;-69
2023/06/02 13:31:43;;;;;;;4.57;3.00;;;;;;;;;;5051962;28;20025;-69
2023/06/02 13:34:10;;;;;;;4.82;2.90;;;;;;;;;;5051614;28;20031;-69
2023/06/02 13:36:36;;;;;;;7.45;3.30;;;;;;;;;;5052183;28;20070;-69
2023/06/02 13:39:03;;;;;;;5.35;3.15;;;;;;;;;;5051477;28;20400;-69
2023/06/02 13:41:29;;;;;;;8.95;3.17;;;;;;;;;;5051891;28;20051;-69
2023/06/02 13:43:57;;;;;;;4.57;3.00;;;;;;;;;;5051505;28;20032;-69
2023/06/02 13:46:23;;;;;;;6.88;3.08;;;;;;;;;;5049570;28;20037;-69
2023/06/02 13:48:50;;;;;;;5.10;3.08;;;;;;;;;;5050941;28;20485;-69
2023/06/02 13:51:16;;;;;;;4.63;3.30;;;;;;;;;;5051928;28;20040;-69
2023/06/02 13:53:42;;;;;;;4.18;2.97;;;;;;;;;;5051563;28;20415;-69
2023/06/02 13:56:09;;;;;;;5.20;2.83;;;;;;;;;;5051384;28;20081;-70
2023/06/02 13:58:35;;;;;;;10.20;3.00;;;;;;;;;;5051355;28;20673;-69
2023/06/02 14:01:03;;;;;;;4.20;3.13;;;;;;;;;;5050621;28;20024;-69
2023/06/02 14:03:30;;;;;;;4.43;3.10;;;;;;;;;;5051456;28;20021;-69
2023/06/02 14:05:56;;;;;;;5.05;3.20;;;;;;;;;;5051146;28;20027;-69
2023/06/02 14:08:23;;;;;;;6.10;3.13;;;;;;;;;;5050994;28;20090;-69
2023/06/02 14:10:49;;;;;;;4.43;3.03;;;;;;;;;;5050819;28;20382;-69
2023/06/02 14:13:15;;;;;;;5.00;2.70;;;;;;;;;;5050931;28;20048;-69
2023/06/02 14:15:42;;;;;;;5.15;3.40;;;;;;;;;;5051193;28;20052;-69
2023/06/02 14:18:08;;;;;;;3.67;3.05;;;;;;;;;;5051364;28;20025;-69
2023/06/02 14:20:35;;;;;;;3.83;3.33;;;;;;;;;;5051194;28;20029;-69
2023/06/02 14:23:01;;;;;;;6.25;3.17;;;;;;;;;;5050786;28;20036;-69
2023/06/02 14:25:27;;;;;;;4.78;3.40;;;;;;;;;;5050849;28;20392;-69
2023/06/02 14:27:54;;;;;;;4.60;3.45;;;;;;;;;;5050339;28;20027;-68
2023/06/02 14:30:20;;;;;;;4.13;3.67;;;;;;;;;;5050385;28;20157;-70
2023/06/02 14:32:46;;;;;;;5.93;3.85;;;;;;;;;;5050905;28;20473;-69
2023/06/02 14:35:13;;;;;;;4.15;3.58;;;;;;;;;;5051626;28;20033;-69
2023/06/02 14:37:39;;;;;;;5.07;3.42;;;;;;;;;;5051226;28;20383;-70
2023/06/02 14:40:06;;;;;;;4.43;3.78;;;;;;;;;;5050819;28;20029;-69
2023/06/02 14:42:32;;;;;;;6.25;3.85;;;;;;;;;;5051207;28;20091;-68